METAR & TAF

RJTT 210600Z 10005KT 9999 FEW030 10/03 Q1014 NOSIG RMK 1CU030 A2995
RJTT 210530Z 11004KT 9999 FEW030 10/02 Q1014 NOSIG RMK 1CU030 A2995
RJTT 210500Z 09006KT 9999 FEW030 10/02 Q1014 NOSIG RMK 1CU030 A2995
RJTT 210430Z 09006KT 9999 FEW030 10/02 Q1014 NOSIG RMK 1CU030 A2994
RJTT 210400Z 08007KT 9999 FEW030 10/02 Q1014 NOSIG RMK 1CU030 A2995
RJTT 210330Z 08007KT 9999 FEW030 BKN/// 10/02 Q1014 NOSIG
RJTT 210300Z 08008KT 9999 FEW030 BKN/// 10/01 Q1015 NOSIG RMK 1CU030 A2998
RJTT 210230Z 04006KT 9999 FEW030 SCT/// 10/00 Q1015 NOSIG
RJTT 210200Z 36007KT 9999 FEW030 10/00 Q1016 NOSIG RMK 1CU030 A3000
RJTT 210130Z 35006KT 9999 FEW020 09/00 Q1016 NOSIG RMK 1CU020 A3002

TAF RJTT 210505Z 2106/2212 09006KT 9999 FEW030
  BECMG 2109/2111 02012KT
  BECMG 2203/2206 01022KT
  TEMPO 2203/2206 3000 -SNRA FEW005 BKN008
  BECMG 2206/2209 3000 -SN FEW005 BKN008
  TEMPO 2206/2212 0700 SN VV004